City of Colorado Springs Municipal Airport
KCOS : now visible

Airfield :











YOU CAN JOIN US ON...

 
LOGIN :

Register | Disclaimer

   EN    FR    IT 

 









Legend :    VFR   Marginal VFR   IFR   Intensive IFR   Very Intensive IFR
Visi :
Ceiling :
>= 8 km
>= 3000ft
5 to 8 km
1000 to 3000 ft
1500m to 5 km
500 to 1000 ft
800 to 1500m
200 to 500 ft
< 800m
< 200 ft
Symbols :   Thunderstorms  Fog  Heavy snow  Heavy precipitations  Wind > 20 kt






- Airport Elevation : 6187 ft
- IATA code : COS


KCOS - City of Colorado Springs Municipal

CURRENT METAR :
  • 201654Z 36009KT 10SM FEW130 SCT170 BKN230 22/M08 A3001 RMK AO2 SLP106 T02171078

EXPIRED METARs :
  • 201554Z 14005KT 10SM FEW130 SCT170 BKN230 18/M08 A3001 RMK AO2 SLP117 T01781078
  • 201454Z 26011KT 10SM SCT180 BKN230 17/M08 A3000 RMK AO2 SLP118 T01721083 53010
  • 201354Z 33006KT 10SM BKN230 16/M09 A2998 RMK AO2 SLP108 T01561094

TAF KCOS
Valid from the 20 at 12:00 until the 21 at 12:00 UTC


201128Z 2012/2112 VRB06KT P6SM BKN200
FM201700 13011KT P6SM BKN200
FM210100 10009KT P6SM SCT200
KZDV FIR / North America



MET'MAP, your aeronautical weather chart ! - Copyright ORBIFLY December 2007 - Disclaimer

ORBIFLY MET'MAP TEAM :

Programming & Development : Alexandra Zaïnal
Concept & original design : Baudouin d'Aumeries
Assistance for programming : Marc-Olivier Méhu
Technical & hardware support : Manuel Goepfert

Contact : metmap@orbifly.com




SOURCES & CREDITS :

   NOAA       Earth
Advisory